createdAt,value
2022-08-05T00:01:36.145Z,39.75
2022-08-05T00:04:17.962Z,39.55
2022-08-05T00:06:51.565Z,40.05
2022-08-05T00:09:21.821Z,39.87
2022-08-05T00:11:56.136Z,39.88
2022-08-05T00:14:29.449Z,40.13
2022-08-05T00:17:02.105Z,40.16
2022-08-05T00:19:33.551Z,40.27
2022-08-05T00:22:11.428Z,40.59
2022-08-05T00:24:42.403Z,40.79
2022-08-05T00:27:16.579Z,40.91
2022-08-05T00:29:45.297Z,40.61
2022-08-05T00:32:15.285Z,40.96
2022-08-05T00:35:04.856Z,40.64
2022-08-05T00:37:53.316Z,40.58
2022-08-05T00:40:29.017Z,41.10
2022-08-05T00:43:01.556Z,40.64
2022-08-05T00:45:43.523Z,40.83
2022-08-05T00:48:13.811Z,41.36
2022-08-05T00:50:46.032Z,41.53
2022-08-05T00:53:59.797Z,41.91
2022-08-05T00:56:07.886Z,41.79
2022-08-05T00:58:36.853Z,41.54
2022-08-05T01:01:08.896Z,42.01
2022-08-05T01:03:38.234Z,41.93
2022-08-05T01:06:14.005Z,42.13
2022-08-05T01:08:44.803Z,42.35
2022-08-05T01:11:33.532Z,42.50
2022-08-05T01:14:15.362Z,42.59
2022-08-05T01:16:50.714Z,42.36
2022-08-05T01:20:01.853Z,42.50
2022-08-05T01:22:46.977Z,42.47
2022-08-05T01:25:53.210Z,42.34
2022-08-05T01:28:39.514Z,42.88
2022-08-05T01:31:13.855Z,42.56
2022-08-05T01:33:52.006Z,43.12
2022-08-05T01:36:27.917Z,43.34
2022-08-05T01:39:00.372Z,43.27
2022-08-05T01:41:35.151Z,43.36
2022-08-05T01:44:09.956Z,43.31
2022-08-05T01:49:24.075Z,43.34
2022-08-05T01:51:58.718Z,43.68
2022-08-05T01:54:32.958Z,43.70
2022-08-05T01:58:11.440Z,43.48
2022-08-05T01:59:54.212Z,43.45
2022-08-05T02:02:28.378Z,43.80
2022-08-05T02:05:01.716Z,44.02
2022-08-05T02:07:32.289Z,44.25
2022-08-05T02:10:03.085Z,44.26
2022-08-05T02:12:40.351Z,44.12
2022-08-05T02:15:15.613Z,44.25
2022-08-05T02:18:32.282Z,43.81
2022-08-05T02:20:49.535Z,44.13
2022-08-05T02:23:24.776Z,44.34
2022-08-05T02:25:54.983Z,44.38
2022-08-05T02:28:32.150Z,44.45
2022-08-05T02:31:14.476Z,44.41
2022-08-05T02:33:57.284Z,44.67
2022-08-05T02:36:31.237Z,44.83
2022-08-05T02:39:04.577Z,44.76
2022-08-05T02:41:58.199Z,45.15
2022-08-05T02:44:28.388Z,45.25
2022-08-05T02:47:00.878Z,45.24
2022-08-05T02:49:37.732Z,45.26
2022-08-05T02:52:13.533Z,45.38
2022-08-05T02:54:55.951Z,45.37
2022-08-05T02:58:10.619Z,45.38
2022-08-05T03:00:15.516Z,45.59
2022-08-05T03:02:48.031Z,45.53
2022-08-05T03:05:17.503Z,45.39
2022-08-05T03:08:04.526Z,45.57
2022-08-05T03:10:37.135Z,45.48
2022-08-05T03:13:16.813Z,45.53
2022-08-05T03:15:46.029Z,45.78
2022-08-05T03:18:17.335Z,45.85
2022-08-05T03:20:48.748Z,45.91
2022-08-05T03:23:18.870Z,45.93
2022-08-05T03:26:30.354Z,45.85
2022-08-05T03:28:41.019Z,46.12
2022-08-05T03:31:10.217Z,45.96
2022-08-05T03:33:51.032Z,46.04
2022-08-05T03:36:30.171Z,46.10
2022-08-05T03:38:59.552Z,46.12
2022-08-05T03:41:33.164Z,45.99
2022-08-05T03:44:11.628Z,46.26
2022-08-05T03:46:40.456Z,46.05
2022-08-05T03:49:10.511Z,46.15
2022-08-05T03:52:50.308Z,46.17
2022-08-05T03:55:50.693Z,46.22
2022-08-05T03:57:41.855Z,46.15
2022-08-05T04:00:16.002Z,46.28
2022-08-05T04:02:51.967Z,46.48
2022-08-05T04:05:23.188Z,46.69
2022-08-05T04:07:58.562Z,46.96
2022-08-05T04:10:32.140Z,47.11
2022-08-05T04:13:07.602Z,47.29
2022-08-05T04:15:36.821Z,47.25
2022-08-05T04:18:09.259Z,47.20
2022-08-05T04:20:41.285Z,47.27
2022-08-05T04:23:12.523Z,47.54
2022-08-05T04:26:00.413Z,47.52
2022-08-05T04:28:30.897Z,47.63
2022-08-05T04:31:01.479Z,47.65
2022-08-05T04:34:17.302Z,47.90
2022-08-05T04:36:49.431Z,47.92
2022-08-05T04:39:09.630Z,48.03
2022-08-05T04:41:39.830Z,48.18
2022-08-05T04:44:09.964Z,48.21
2022-08-05T04:46:39.223Z,48.47
2022-08-05T04:49:12.438Z,48.21
2022-08-05T04:51:45.362Z,48.38
2022-08-05T04:54:14.932Z,48.22
2022-08-05T04:56:43.859Z,48.21
2022-08-05T04:59:21.884Z,48.33
2022-08-05T05:02:07.947Z,48.60
2022-08-05T05:04:44.143Z,48.39
2022-08-05T05:07:18.384Z,48.55
2022-08-05T05:09:57.598Z,48.47
2022-08-05T05:12:27.394Z,48.38
2022-08-05T05:14:56.565Z,48.43
2022-08-05T05:17:57.128Z,48.14
2022-08-05T05:20:15.215Z,47.87
2022-08-05T05:22:50.350Z,47.84
2022-08-05T05:25:18.764Z,47.78
2022-08-05T05:27:48.545Z,47.80
2022-08-05T05:30:29.358Z,47.79
2022-08-05T05:33:09.069Z,47.74
2022-08-05T05:35:46.874Z,47.59
2022-08-05T05:38:22.482Z,47.49
2022-08-05T05:40:57.076Z,47.82
2022-08-05T05:43:57.548Z,47.67
2022-08-05T05:46:17.483Z,47.85
2022-08-05T05:48:48.558Z,48.00
2022-08-05T05:51:27.822Z,47.53
2022-08-05T05:53:59.905Z,47.71
2022-08-05T05:56:33.255Z,47.96
2022-08-05T05:59:05.298Z,47.82
2022-08-05T06:01:37.406Z,47.75
2022-08-05T06:04:11.528Z,47.85
2022-08-05T06:06:42.588Z,47.73
2022-08-05T06:09:16.789Z,47.44
2022-08-05T06:12:01.401Z,47.45
2022-08-05T06:14:31.138Z,47.71
2022-08-05T06:17:02.179Z,47.33
2022-08-05T06:19:56.566Z,47.66
2022-08-05T06:22:29.488Z,47.27
2022-08-05T06:24:59.499Z,47.00
2022-08-05T06:28:11.284Z,47.42
2022-08-05T06:30:19.953Z,47.37
2022-08-05T06:32:50.623Z,47.19
2022-08-05T06:36:04.002Z,47.26
2022-08-05T06:38:11.332Z,46.83
2022-08-05T06:40:44.295Z,46.55
2022-08-05T06:43:57.743Z,46.41
2022-08-05T06:46:03.977Z,46.06
2022-08-05T06:48:56.298Z,46.00
2022-08-05T06:51:30.058Z,45.58
2022-08-05T06:53:59.896Z,45.90
2022-08-05T06:56:30.389Z,45.23
2022-08-05T06:59:03.256Z,45.37
2022-08-05T07:01:32.940Z,45.24
2022-08-05T07:04:03.171Z,45.39
2022-08-05T07:06:32.185Z,44.59
2022-08-05T07:09:04.160Z,44.25
2022-08-05T07:11:36.765Z,44.53
2022-08-05T07:14:29.951Z,44.09
2022-08-05T07:18:02.209Z,44.37
2022-08-05T07:22:42.569Z,42.70
2022-08-05T07:25:54.068Z,42.84
2022-08-05T07:28:05.841Z,42.26
2022-08-05T07:30:39.997Z,41.92
2022-08-05T07:33:16.467Z,41.60
2022-08-05T07:36:02.653Z,40.73
2022-08-05T07:38:43.121Z,40.47
2022-08-05T07:42:09.015Z,40.57
2022-08-05T07:44:14.197Z,40.25
2022-08-05T07:46:49.641Z,40.06
2022-08-05T07:49:19.448Z,39.50
2022-08-05T07:51:52.994Z,38.81
2022-08-05T07:54:31.699Z,38.54
2022-08-05T07:57:13.993Z,38.68
2022-08-05T07:59:53.717Z,38.16
2022-08-05T08:02:31.392Z,38.22
2022-08-05T08:05:15.310Z,37.72
2022-08-05T08:08:00.256Z,37.22
2022-08-05T08:10:29.537Z,36.94
2022-08-05T08:12:58.964Z,36.47
2022-08-05T08:16:33.404Z,35.94
2022-08-05T08:18:20.841Z,35.72
2022-08-05T08:21:01.907Z,34.85
2022-08-05T08:24:01.327Z,34.83
2022-08-05T08:26:26.915Z,34.85
2022-08-05T08:29:21.499Z,33.99
2022-08-05T08:31:49.490Z,33.88
2022-08-05T08:34:18.577Z,33.53
2022-08-05T08:36:50.554Z,33.05
2022-08-05T08:39:24.684Z,33.03
2022-08-05T08:41:59.832Z,33.42
2022-08-05T08:45:16.431Z,33.08
2022-08-05T08:48:07.620Z,33.04
2022-08-05T08:50:30.365Z,32.89
2022-08-05T08:53:07.907Z,32.06
2022-08-05T08:56:02.948Z,32.59
2022-08-05T08:58:37.458Z,32.21
2022-08-05T09:01:15.776Z,32.17
2022-08-05T09:03:54.458Z,32.39
2022-08-05T09:06:28.127Z,31.83
2022-08-05T09:09:00.023Z,31.16
2022-08-05T09:11:51.393Z,31.03
2022-08-05T09:14:57.544Z,30.27
2022-08-05T09:17:09.510Z,29.87
2022-08-05T09:19:55.417Z,29.75
2022-08-05T09:22:31.850Z,29.13
2022-08-05T09:25:13.922Z,28.55
2022-08-05T09:28:05.874Z,28.40
2022-08-05T09:30:35.715Z,27.90
2022-08-05T09:33:07.512Z,28.18
2022-08-05T09:35:37.755Z,27.42
2022-08-05T09:38:12.035Z,27.36
2022-08-05T09:40:52.441Z,27.64
2022-08-05T09:43:40.857Z,27.03
2022-08-05T09:46:28.301Z,27.05
2022-08-05T09:49:07.168Z,26.15
2022-08-05T09:51:49.907Z,26.62
2022-08-05T09:54:31.188Z,26.18
2022-08-05T09:57:01.717Z,26.20
2022-08-05T09:59:36.947Z,26.53
2022-08-05T10:02:07.087Z,26.74
2022-08-05T10:04:41.062Z,25.52
2022-08-05T10:07:20.098Z,25.66
2022-08-05T10:10:14.339Z,24.87
2022-08-05T10:12:50.433Z,25.04
2022-08-05T10:15:26.187Z,25.33
2022-08-05T10:18:16.662Z,25.02
2022-08-05T10:20:48.593Z,24.94
2022-08-05T10:23:55.828Z,24.79
2022-08-05T10:26:14.409Z,24.72
2022-08-05T10:28:45.049Z,25.08
2022-08-05T10:32:52.644Z,25.54
2022-08-05T10:34:07.139Z,24.71
2022-08-05T10:36:38.264Z,24.60
2022-08-05T10:39:24.889Z,24.88
2022-08-05T10:42:11.357Z,23.81
2022-08-05T10:44:45.071Z,23.91
2022-08-05T10:47:26.457Z,24.19
2022-08-05T10:50:20.754Z,23.53
2022-08-05T10:52:58.569Z,23.73
2022-08-05T10:55:32.717Z,22.99
2022-08-05T10:58:11.713Z,23.54
2022-08-05T11:00:48.424Z,23.85
2022-08-05T11:03:26.861Z,22.47
2022-08-05T11:06:15.196Z,23.00
2022-08-05T11:09:16.336Z,22.72
2022-08-05T11:11:53.544Z,23.16
2022-08-05T11:15:01.193Z,22.29
2022-08-05T11:17:56.871Z,22.51
2022-08-05T11:20:44.143Z,22.77
2022-08-05T11:24:05.660Z,22.93
2022-08-05T11:26:43.337Z,23.31
2022-08-05T11:29:37.604Z,22.35
2022-08-05T11:32:28.433Z,21.75
2022-08-05T11:34:58.318Z,22.01
2022-08-05T11:38:30.793Z,21.49
2022-08-05T11:41:35.426Z,20.64
2022-08-05T11:44:05.933Z,20.61
2022-08-05T11:46:58.134Z,21.07
2022-08-05T11:49:29.098Z,21.04
2022-08-05T11:52:08.716Z,20.53
2022-08-05T11:54:41.519Z,21.50
2022-08-05T11:57:25.230Z,21.75
2022-08-05T11:59:56.339Z,20.72
2022-08-05T12:02:33.424Z,21.31
2022-08-05T12:05:08.122Z,20.80
2022-08-05T12:08:07.900Z,20.24
2022-08-05T12:10:46.120Z,20.31
2022-08-05T12:13:28.187Z,20.09
2022-08-05T12:16:14.580Z,20.10
2022-08-05T12:18:49.384Z,20.43
2022-08-05T12:21:24.852Z,20.12
2022-08-05T12:23:59.951Z,19.85
2022-08-05T12:26:34.221Z,20.23
2022-08-05T12:29:03.211Z,19.98
2022-08-05T12:31:47.680Z,20.06
2022-08-05T12:34:23.547Z,19.89
2022-08-05T12:36:54.285Z,20.07
2022-08-05T12:39:28.140Z,20.47
2022-08-05T12:42:14.419Z,20.77
2022-08-05T12:44:45.696Z,20.25
2022-08-05T12:47:17.193Z,19.93
2022-08-05T12:50:04.560Z,19.43
2022-08-05T12:52:39.293Z,20.51
2022-08-05T12:55:25.392Z,19.38
2022-08-05T12:58:50.632Z,19.30
2022-08-05T13:02:04.266Z,20.25
2022-08-05T13:03:41.810Z,19.38
2022-08-05T13:06:16.355Z,19.34
2022-08-05T13:08:50.892Z,19.68
2022-08-05T13:11:59.634Z,19.60
2022-08-05T13:14:25.104Z,19.58
2022-08-05T13:17:10.697Z,18.92
2022-08-05T13:19:51.043Z,18.32
2022-08-05T13:22:28.155Z,18.28
2022-08-05T13:25:05.822Z,18.72
2022-08-05T13:27:39.695Z,18.82
2022-08-05T13:30:34.138Z,19.11
2022-08-05T13:33:01.488Z,18.96
2022-08-05T13:35:43.101Z,19.12
2022-08-05T13:38:31.170Z,18.98
2022-08-05T13:41:04.846Z,18.87
2022-08-05T13:43:45.689Z,19.21
2022-08-05T13:46:43.836Z,19.81
2022-08-05T13:49:12.724Z,18.72
2022-08-05T13:51:46.110Z,18.73
2022-08-05T13:54:20.983Z,18.22
2022-08-05T13:56:53.759Z,18.31
2022-08-05T13:59:24.217Z,19.50
2022-08-05T14:01:58.242Z,18.66
2022-08-05T14:04:50.348Z,19.39
2022-08-05T14:07:56.290Z,18.92
2022-08-05T14:10:19.270Z,18.48
2022-08-05T14:12:57.966Z,18.88
2022-08-05T14:16:08.431Z,18.79
2022-08-05T14:18:17.443Z,19.57
2022-08-05T14:20:48.609Z,19.09
2022-08-05T14:23:19.097Z,18.94
2022-08-05T14:25:57.981Z,19.14
2022-08-05T14:28:28.464Z,18.92
2022-08-05T14:30:57.215Z,18.68
2022-08-05T14:33:25.594Z,19.20
2022-08-05T14:35:54.929Z,19.37
2022-08-05T14:38:31.884Z,19.12
2022-08-05T14:41:06.156Z,19.02
2022-08-05T14:43:57.500Z,19.44
2022-08-05T14:46:28.828Z,18.91
2022-08-05T14:49:03.515Z,19.43
2022-08-05T14:51:37.710Z,20.10
2022-08-05T14:54:28.002Z,20.10
2022-08-05T14:56:57.444Z,20.39
2022-08-05T14:59:29.794Z,20.78
2022-08-05T15:02:15.843Z,21.10
2022-08-05T15:04:47.655Z,21.83
2022-08-05T15:08:08.738Z,21.42
2022-08-05T15:10:05.849Z,21.98
2022-08-05T15:13:00.525Z,20.85
2022-08-05T15:15:54.929Z,20.68
2022-08-05T15:18:17.297Z,20.66
2022-08-05T15:20:46.033Z,20.08
2022-08-05T15:23:15.688Z,20.09
2022-08-05T15:25:52.362Z,19.97
2022-08-05T15:28:27.631Z,19.55
2022-08-05T15:30:56.548Z,19.86
2022-08-05T15:34:05.812Z,20.09
2022-08-05T15:36:16.807Z,20.42
2022-08-05T15:38:46.873Z,19.97
2022-08-05T15:41:21.428Z,18.84
2022-08-05T15:43:55.058Z,19.27
2022-08-05T15:46:25.109Z,19.36
2022-08-05T15:49:00.703Z,20.36
2022-08-05T15:52:03.838Z,19.84
2022-08-05T15:54:35.166Z,20.69
2022-08-05T15:57:07.367Z,20.33
2022-08-05T15:59:38.447Z,20.82
2022-08-05T16:02:09.601Z,20.21
2022-08-05T16:04:43.944Z,20.45
2022-08-05T16:07:13.302Z,22.14
2022-08-05T16:09:43.455Z,23.41
2022-08-05T16:12:12.328Z,23.06
2022-08-05T16:14:42.149Z,23.81
2022-08-05T16:17:12.740Z,21.00
2022-08-05T16:20:05.217Z,22.34
2022-08-05T16:22:34.464Z,22.44
2022-08-05T16:25:09.905Z,23.82
2022-08-05T16:27:59.791Z,22.41
2022-08-05T16:30:30.734Z,21.24
2022-08-05T16:33:01.401Z,21.75
2022-08-05T16:35:32.488Z,21.95
2022-08-05T16:38:23.707Z,23.22
2022-08-05T16:40:59.507Z,22.88
2022-08-05T16:43:31.809Z,22.31
2022-08-05T16:46:23.555Z,20.87
2022-08-05T16:48:52.043Z,22.50
2022-08-05T16:51:21.575Z,22.38
2022-08-05T16:54:03.458Z,21.84
2022-08-05T16:56:35.354Z,22.90
2022-08-05T16:59:09.017Z,24.75
2022-08-05T17:01:53.909Z,23.35
2022-08-05T17:04:27.324Z,24.55
2022-08-05T17:07:00.931Z,24.44
2022-08-05T17:09:38.965Z,24.03
2022-08-05T17:12:22.691Z,23.18
2022-08-05T17:15:09.256Z,24.03
2022-08-05T17:17:42.166Z,24.58
2022-08-05T17:20:14.971Z,25.09
2022-08-05T17:22:45.063Z,24.11
2022-08-05T17:25:33.532Z,24.58
2022-08-05T17:28:01.988Z,24.82
2022-08-05T17:30:30.676Z,24.13
2022-08-05T17:33:00.416Z,23.42
2022-08-05T17:35:32.525Z,22.90
2022-08-05T17:38:18.289Z,22.33
2022-08-05T17:40:47.701Z,21.81
2022-08-05T17:43:18.040Z,21.77
2022-08-05T17:46:06.788Z,22.01
2022-08-05T17:48:40.125Z,22.03
2022-08-05T17:51:11.599Z,22.01
2022-08-05T17:53:42.372Z,21.99
2022-08-05T17:56:11.705Z,21.92
2022-08-05T17:58:40.993Z,22.28
2022-08-05T18:01:10.273Z,22.20
2022-08-05T18:03:58.444Z,23.38
2022-08-05T18:06:29.416Z,23.57
2022-08-05T18:08:59.660Z,24.03
2022-08-05T18:11:32.857Z,23.89
2022-08-05T18:14:04.278Z,24.18
2022-08-05T18:16:35.217Z,23.36
2022-08-05T18:19:16.808Z,23.86
2022-08-05T18:22:09.010Z,23.84
2022-08-05T18:24:33.661Z,24.36
2022-08-05T18:27:02.020Z,24.41
2022-08-05T18:29:39.976Z,23.94
2022-08-05T18:32:12.620Z,24.94
2022-08-05T18:34:43.201Z,24.16
2022-08-05T18:37:12.339Z,23.93
2022-08-05T18:40:29.564Z,24.44
2022-08-05T18:42:29.700Z,25.50
2022-08-05T18:44:58.080Z,25.15
2022-08-05T18:47:28.487Z,25.45
2022-08-05T18:50:18.475Z,25.60
2022-08-05T18:52:51.029Z,26.12
2022-08-05T18:55:20.396Z,26.49
2022-08-05T18:57:53.187Z,26.69
2022-08-05T19:00:31.307Z,26.20
2022-08-05T19:03:03.552Z,26.81
2022-08-05T19:06:11.984Z,27.81
2022-08-05T19:08:30.520Z,26.80
2022-08-05T19:11:02.819Z,27.80
2022-08-05T19:13:36.145Z,27.61
2022-08-05T19:16:25.139Z,28.22
2022-08-05T19:18:56.441Z,28.56
2022-08-05T19:21:34.370Z,28.31
2022-08-05T19:24:08.929Z,28.48
2022-08-05T19:26:54.947Z,29.19
2022-08-05T19:29:36.340Z,28.72
2022-08-05T19:32:11.217Z,29.20
2022-08-05T19:34:40.082Z,29.33
2022-08-05T19:37:11.285Z,29.53
2022-08-05T19:39:45.922Z,29.37
2022-08-05T19:42:19.644Z,28.69
2022-08-05T19:45:06.522Z,28.66
2022-08-05T19:50:03.298Z,28.98
2022-08-05T19:52:33.119Z,29.64
2022-08-05T19:55:06.869Z,29.97
2022-08-05T19:57:48.900Z,29.90
2022-08-05T20:00:25.546Z,30.47
2022-08-05T20:02:54.257Z,31.23
2022-08-05T20:05:24.702Z,31.49
2022-08-05T20:07:58.937Z,31.39
2022-08-05T20:10:27.665Z,31.59
2022-08-05T20:12:57.352Z,31.41
2022-08-05T20:15:52.702Z,31.60
2022-08-05T20:18:33.186Z,31.54
2022-08-05T20:21:04.427Z,31.46
2022-08-05T20:23:39.602Z,31.45
2022-08-05T20:26:20.626Z,31.89
2022-08-05T20:28:51.477Z,31.92
2022-08-05T20:31:36.794Z,31.87
2022-08-05T20:34:12.544Z,32.57
2022-08-05T20:36:43.458Z,31.94
2022-08-05T20:39:16.657Z,32.85
2022-08-05T20:41:47.715Z,32.74
2022-08-05T20:44:30.129Z,32.56
2022-08-05T20:47:01.023Z,32.63
2022-08-05T20:49:29.457Z,32.84
2022-08-05T20:52:01.549Z,32.98
2022-08-05T20:54:43.052Z,33.19
2022-08-05T20:57:25.063Z,33.62
2022-08-05T21:00:40.351Z,33.51
2022-08-05T21:03:06.301Z,33.52
2022-08-05T21:05:54.762Z,34.44
2022-08-05T21:08:32.891Z,36.21
2022-08-05T21:11:12.758Z,37.28
2022-08-05T21:13:55.590Z,38.50
2022-08-05T21:16:29.429Z,38.84
2022-08-05T21:19:00.932Z,38.78
2022-08-05T21:21:43.665Z,39.67
2022-08-05T21:24:15.694Z,39.56
2022-08-05T21:26:53.480Z,39.80
2022-08-05T21:29:32.033Z,39.94
2022-08-05T21:32:02.415Z,39.83
2022-08-05T21:34:31.717Z,39.59
2022-08-05T21:37:01.855Z,39.84
2022-08-05T21:39:31.011Z,40.38
2022-08-05T21:42:05.226Z,40.68
2022-08-05T21:44:34.007Z,41.76
2022-08-05T21:47:02.795Z,41.87
2022-08-05T21:50:00.473Z,42.02
2022-08-05T21:52:27.647Z,42.98
2022-08-05T21:55:06.444Z,43.01
2022-08-05T21:57:37.700Z,42.95
2022-08-05T22:00:14.060Z,43.12
2022-08-05T22:02:43.652Z,43.44
2022-08-05T22:05:13.093Z,43.95
2022-08-05T22:07:59.216Z,44.23
2022-08-05T22:10:31.126Z,44.17
2022-08-05T22:14:04.858Z,43.60
2022-08-05T22:16:01.660Z,44.17
2022-08-05T22:18:36.489Z,44.41
2022-08-05T22:21:19.535Z,44.75
2022-08-05T22:24:09.115Z,44.94
2022-08-05T22:26:59.205Z,45.50
2022-08-05T22:29:30.688Z,45.57
2022-08-05T22:32:02.759Z,45.38
2022-08-05T22:34:32.719Z,45.48
2022-08-05T22:37:03.992Z,45.48
2022-08-05T22:39:34.678Z,45.85
2022-08-05T22:42:11.097Z,45.79
2022-08-05T22:44:53.580Z,45.56
2022-08-05T22:47:30.084Z,45.74
2022-08-05T22:50:19.698Z,45.78
2022-08-05T22:52:51.378Z,46.03
2022-08-05T22:55:22.410Z,46.09
2022-08-05T22:57:52.151Z,46.61
2022-08-05T23:00:23.699Z,46.82
2022-08-05T23:02:53.527Z,47.07
2022-08-05T23:05:23.168Z,47.08
2022-08-05T23:07:52.087Z,47.52
2022-08-05T23:10:23.959Z,47.63
2022-08-05T23:12:55.013Z,47.90
2022-08-05T23:15:27.063Z,47.36
2022-08-05T23:18:02.298Z,47.86
2022-08-05T23:20:33.850Z,47.88
2022-08-05T23:23:08.518Z,48.23
2022-08-05T23:25:52.816Z,48.53
2022-08-05T23:28:28.994Z,49.02
2022-08-05T23:31:15.667Z,48.70
2022-08-05T23:34:04.396Z,49.09
2022-08-05T23:36:39.942Z,49.13
2022-08-05T23:39:16.604Z,49.08
2022-08-05T23:41:56.273Z,49.15
2022-08-05T23:44:28.054Z,49.45
2022-08-05T23:47:02.458Z,49.35
2022-08-05T23:49:39.330Z,49.71
2022-08-05T23:52:30.542Z,49.85
2022-08-05T23:55:02.426Z,49.67
2022-08-05T23:57:34.103Z,50.13
